sensor_id;sensor_type;location;lat;lon;timestamp;temperature;humidity
62809;DHT22;48848;39.002;-94.584;2023-02-15T00:01:08;25.10;32.10
62809;DHT22;48848;39.002;-94.584;2023-02-15T00:03:34;25.30;31.70
62809;DHT22;48848;39.002;-94.584;2023-02-15T00:06:01;25.80;31.40
62809;DHT22;48848;39.002;-94.584;2023-02-15T00:08:27;25.90;31.00
62809;DHT22;48848;39.002;-94.584;2023-02-15T00:10:53;26.10;30.70
62809;DHT22;48848;39.002;-94.584;2023-02-15T00:13:18;26.40;30.50
62809;DHT22;48848;39.002;-94.584;2023-02-15T00:15:44;26.20;30.50
62809;DHT22;48848;39.002;-94.584;2023-02-15T00:18:10;23.90;32.40
62809;DHT22;48848;39.002;-94.584;2023-02-15T00:20:36;22.50;35.10
62809;DHT22;48848;39.002;-94.584;2023-02-15T00:23:02;21.60;36.90
62809;DHT22;48848;39.002;-94.584;2023-02-15T00:25:28;21.10;38.00
62809;DHT22;48848;39.002;-94.584;2023-02-15T00:27:53;20.80;38.80
62809;DHT22;48848;39.002;-94.584;2023-02-15T00:30:19;22.00;38.20
62809;DHT22;48848;39.002;-94.584;2023-02-15T00:32:47;23.10;36.40
62809;DHT22;48848;39.002;-94.584;2023-02-15T00:35:12;24.10;34.90
62809;DHT22;48848;39.002;-94.584;2023-02-15T00:37:38;24.80;33.70
62809;DHT22;48848;39.002;-94.584;2023-02-15T00:40:04;25.00;32.80
62809;DHT22;48848;39.002;-94.584;2023-02-15T00:42:30;23.40;34.10
62809;DHT22;48848;39.002;-94.584;2023-02-15T00:44:56;22.50;36.30
62809;DHT22;48848;39.002;-94.584;2023-02-15T00:47:22;21.70;37.60
62809;DHT22;48848;39.002;-94.584;2023-02-15T00:49:49;21.40;38.40
62809;DHT22;48848;39.002;-94.584;2023-02-15T00:52:15;21.20;38.90
62809;DHT22;48848;39.002;-94.584;2023-02-15T00:54:41;21.00;39.30
62809;DHT22;48848;39.002;-94.584;2023-02-15T00:57:07;20.90;39.80
62809;DHT22;48848;39.002;-94.584;2023-02-15T00:59:33;20.80;40.30
62809;DHT22;48848;39.002;-94.584;2023-02-15T01:01:59;20.70;40.30
62809;DHT22;48848;39.002;-94.584;2023-02-15T01:04:25;20.60;40.30
62809;DHT22;48848;39.002;-94.584;2023-02-15T01:06:51;20.60;40.60
62809;DHT22;48848;39.002;-94.584;2023-02-15T01:09:17;20.60;40.70
62809;DHT22;48848;39.002;-94.584;2023-02-15T01:11:43;21.80;39.60
62809;DHT22;48848;39.002;-94.584;2023-02-15T01:14:08;22.90;37.80
62809;DHT22;48848;39.002;-94.584;2023-02-15T01:16:34;23.80;36.30
62809;DHT22;48848;39.002;-94.584;2023-02-15T01:19:00;24.60;34.80
62809;DHT22;48848;39.002;-94.584;2023-02-15T01:21:28;23.70;35.00
62809;DHT22;48848;39.002;-94.584;2023-02-15T01:23:54;22.70;36.60
62809;DHT22;48848;39.002;-94.584;2023-02-15T01:26:20;22.00;37.90
62809;DHT22;48848;39.002;-94.584;2023-02-15T01:28:46;21.60;38.80
62809;DHT22;48848;39.002;-94.584;2023-02-15T01:31:13;21.40;39.30
62809;DHT22;48848;39.002;-94.584;2023-02-15T01:33:39;21.20;39.70
62809;DHT22;48848;39.002;-94.584;2023-02-15T01:36:05;21.10;40.10
62809;DHT22;48848;39.002;-94.584;2023-02-15T01:38:32;21.00;40.40
62809;DHT22;48848;39.002;-94.584;2023-02-15T01:40:58;21.00;40.40
62809;DHT22;48848;39.002;-94.584;2023-02-15T01:43:45;20.90;40.60
62809;DHT22;48848;39.002;-94.584;2023-02-15T01:46:12;20.80;40.70
62809;DHT22;48848;39.002;-94.584;2023-02-15T01:48:40;20.80;40.60
62809;DHT22;48848;39.002;-94.584;2023-02-15T01:51:08;20.80;40.70
62809;DHT22;48848;39.002;-94.584;2023-02-15T01:53:38;20.70;40.90
62809;DHT22;48848;39.002;-94.584;2023-02-15T01:56:08;20.70;40.90
62809;DHT22;48848;39.002;-94.584;2023-02-15T01:58:35;20.70;41.60
62809;DHT22;48848;39.002;-94.584;2023-02-15T02:01:02;20.60;41.40
62809;DHT22;48848;39.002;-94.584;2023-02-15T02:03:42;20.60;41.60
62809;DHT22;48848;39.002;-94.584;2023-02-15T02:06:10;20.50;41.80
62809;DHT22;48848;39.002;-94.584;2023-02-15T02:08:37;20.50;42.20
62809;DHT22;48848;39.002;-94.584;2023-02-15T02:11:08;20.50;42.30
62809;DHT22;48848;39.002;-94.584;2023-02-15T02:13:34;20.50;42.50
62809;DHT22;48848;39.002;-94.584;2023-02-15T02:16:02;20.40;43.10
62809;DHT22;48848;39.002;-94.584;2023-02-15T02:26:24;20.40;43.30
62809;DHT22;48848;39.002;-94.584;2023-02-15T02:29:05;20.40;43.10
62809;DHT22;48848;39.002;-94.584;2023-02-15T02:31:52;20.40;42.90
62809;DHT22;48848;39.002;-94.584;2023-02-15T02:34:25;20.30;42.60
62809;DHT22;48848;39.002;-94.584;2023-02-15T02:37:08;20.30;42.60
62809;DHT22;48848;39.002;-94.584;2023-02-15T02:42:15;20.30;42.50
62809;DHT22;48848;39.002;-94.584;2023-02-15T02:44:46;20.20;42.40
62809;DHT22;48848;39.002;-94.584;2023-02-15T02:47:16;20.20;42.30
62809;DHT22;48848;39.002;-94.584;2023-02-15T02:49:44;20.10;42.30
62809;DHT22;48848;39.002;-94.584;2023-02-15T02:54:54;19.70;43.90
62809;DHT22;48848;39.002;-94.584;2023-02-15T02:57:20;19.80;43.10
62809;DHT22;48848;39.002;-94.584;2023-02-15T02:59:48;19.80;42.30
62809;DHT22;48848;39.002;-94.584;2023-02-15T03:02:16;19.80;42.90
62809;DHT22;48848;39.002;-94.584;2023-02-15T03:04:46;19.80;41.80
62809;DHT22;48848;39.002;-94.584;2023-02-15T03:07:17;19.70;42.60
62809;DHT22;48848;39.002;-94.584;2023-02-15T03:09:49;19.70;43.10
62809;DHT22;48848;39.002;-94.584;2023-02-15T03:12:23;19.70;42.10
62809;DHT22;48848;39.002;-94.584;2023-02-15T03:14:51;19.60;41.80
62809;DHT22;48848;39.002;-94.584;2023-02-15T03:17:18;19.80;42.80
62809;DHT22;48848;39.002;-94.584;2023-02-15T03:19:45;20.90;41.50
62809;DHT22;48848;39.002;-94.584;2023-02-15T03:22:13;21.90;38.60
62809;DHT22;48848;39.002;-94.584;2023-02-15T03:24:52;22.80;37.90
62809;DHT22;48848;39.002;-94.584;2023-02-15T03:27:20;22.00;38.00
62809;DHT22;48848;39.002;-94.584;2023-02-15T03:29:49;21.10;39.50
62809;DHT22;48848;39.002;-94.584;2023-02-15T03:32:15;20.60;41.50
62809;DHT22;48848;39.002;-94.584;2023-02-15T03:34:43;20.10;42.30
62809;DHT22;48848;39.002;-94.584;2023-02-15T03:39:52;19.80;44.40
62809;DHT22;48848;39.002;-94.584;2023-02-15T03:42:25;19.60;43.60
62809;DHT22;48848;39.002;-94.584;2023-02-15T03:47:22;19.70;43.20
62809;DHT22;48848;39.002;-94.584;2023-02-15T03:52:18;19.60;43.00
62809;DHT22;48848;39.002;-94.584;2023-02-15T03:54:46;19.60;43.10
62809;DHT22;48848;39.002;-94.584;2023-02-15T03:57:22;19.50;43.30
62809;DHT22;48848;39.002;-94.584;2023-02-15T04:00:12;19.60;43.10
62809;DHT22;48848;39.002;-94.584;2023-02-15T04:03:01;19.60;42.80
62809;DHT22;48848;39.002;-94.584;2023-02-15T04:05:30;19.50;42.80
62809;DHT22;48848;39.002;-94.584;2023-02-15T04:07:56;19.50;42.80
62809;DHT22;48848;39.002;-94.584;2023-02-15T04:10:22;19.30;42.70
62809;DHT22;48848;39.002;-94.584;2023-02-15T04:13:06;19.40;43.00
62809;DHT22;48848;39.002;-94.584;2023-02-15T04:15:32;19.30;42.90
62809;DHT22;48848;39.002;-94.584;2023-02-15T04:18:16;19.30;42.80
62809;DHT22;48848;39.002;-94.584;2023-02-15T04:20:45;19.30;42.80
62809;DHT22;48848;39.002;-94.584;2023-02-15T04:23:30;19.00;43.20
62809;DHT22;48848;39.002;-94.584;2023-02-15T04:26:15;18.80;43.70
62809;DHT22;48848;39.002;-94.584;2023-02-15T04:28:41;18.90;43.30
62809;DHT22;48848;39.002;-94.584;2023-02-15T04:31:07;19.10;43.10
62809;DHT22;48848;39.002;-94.584;2023-02-15T04:33:33;18.90;43.20
62809;DHT22;48848;39.002;-94.584;2023-02-15T04:35:59;18.70;43.60
62809;DHT22;48848;39.002;-94.584;2023-02-15T04:38:25;18.80;43.20
62809;DHT22;48848;39.002;-94.584;2023-02-15T04:40:51;18.70;43.50
62809;DHT22;48848;39.002;-94.584;2023-02-15T04:43:18;18.50;43.70
62809;DHT22;48848;39.002;-94.584;2023-02-15T04:45:50;18.50;43.60
62809;DHT22;48848;39.002;-94.584;2023-02-15T04:48:16;18.40;43.40
62809;DHT22;48848;39.002;-94.584;2023-02-15T04:50:42;18.30;44.00
62809;DHT22;48848;39.002;-94.584;2023-02-15T04:53:09;18.20;44.00
62809;DHT22;48848;39.002;-94.584;2023-02-15T04:55:35;18.10;43.70
62809;DHT22;48848;39.002;-94.584;2023-02-15T04:58:00;18.00;43.80
62809;DHT22;48848;39.002;-94.584;2023-02-15T05:00:26;18.00;43.90
62809;DHT22;48848;39.002;-94.584;2023-02-15T05:02:52;18.00;43.70
62809;DHT22;48848;39.002;-94.584;2023-02-15T05:05:18;18.40;43.10
62809;DHT22;48848;39.002;-94.584;2023-02-15T05:07:44;18.70;43.40
62809;DHT22;48848;39.002;-94.584;2023-02-15T05:10:10;18.80;41.70
62809;DHT22;48848;39.002;-94.584;2023-02-15T05:12:36;18.90;41.40
62809;DHT22;48848;39.002;-94.584;2023-02-15T05:15:02;18.90;42.30
62809;DHT22;48848;39.002;-94.584;2023-02-15T05:17:28;18.90;41.20
62809;DHT22;48848;39.002;-94.584;2023-02-15T05:19:54;19.00;41.20
62809;DHT22;48848;39.002;-94.584;2023-02-15T05:22:20;18.90;41.30
62809;DHT22;48848;39.002;-94.584;2023-02-15T05:24:45;19.00;41.10
62809;DHT22;48848;39.002;-94.584;2023-02-15T05:27:30;18.90;41.00
62809;DHT22;48848;39.002;-94.584;2023-02-15T05:30:14;18.90;41.00
62809;DHT22;48848;39.002;-94.584;2023-02-15T05:32:40;18.90;41.10
62809;DHT22;48848;39.002;-94.584;2023-02-15T05:35:06;18.90;41.00
62809;DHT22;48848;39.002;-94.584;2023-02-15T05:37:33;18.90;41.10
62809;DHT22;48848;39.002;-94.584;2023-02-15T05:39:58;18.80;41.00
62809;DHT22;48848;39.002;-94.584;2023-02-15T05:42:24;18.80;41.00
62809;DHT22;48848;39.002;-94.584;2023-02-15T05:44:50;18.80;41.20
62809;DHT22;48848;39.002;-94.584;2023-02-15T05:47:16;18.80;40.80
62809;DHT22;48848;39.002;-94.584;2023-02-15T05:49:42;18.80;41.00
62809;DHT22;48848;39.002;-94.584;2023-02-15T05:52:08;18.80;41.30
62809;DHT22;48848;39.002;-94.584;2023-02-15T05:54:33;18.70;41.40
62809;DHT22;48848;39.002;-94.584;2023-02-15T05:56:59;18.70;41.30
62809;DHT22;48848;39.002;-94.584;2023-02-15T05:59:25;18.70;41.40
62809;DHT22;48848;39.002;-94.584;2023-02-15T06:01:51;18.70;41.50
62809;DHT22;48848;39.002;-94.584;2023-02-15T06:04:17;18.70;41.70
62809;DHT22;48848;39.002;-94.584;2023-02-15T06:06:43;18.70;41.90
62809;DHT22;48848;39.002;-94.584;2023-02-15T06:09:10;18.70;41.80
62809;DHT22;48848;39.002;-94.584;2023-02-15T06:11:35;18.60;41.80
62809;DHT22;48848;39.002;-94.584;2023-02-15T06:14:01;18.60;41.80
62809;DHT22;48848;39.002;-94.584;2023-02-15T06:16:27;18.60;41.90
62809;DHT22;48848;39.002;-94.584;2023-02-15T06:18:53;18.60;41.70
62809;DHT22;48848;39.002;-94.584;2023-02-15T06:21:19;18.50;41.50
62809;DHT22;48848;39.002;-94.584;2023-02-15T06:23:45;18.50;41.50
62809;DHT22;48848;39.002;-94.584;2023-02-15T06:26:10;18.50;41.20
62809;DHT22;48848;39.002;-94.584;2023-02-15T06:28:36;18.50;41.20
62809;DHT22;48848;39.002;-94.584;2023-02-15T06:31:03;18.50;41.00
62809;DHT22;48848;39.002;-94.584;2023-02-15T06:33:28;18.40;40.90
62809;DHT22;48848;39.002;-94.584;2023-02-15T06:35:55;18.40;41.00
62809;DHT22;48848;39.002;-94.584;2023-02-15T06:38:22;18.40;41.00
62809;DHT22;48848;39.002;-94.584;2023-02-15T06:40:47;18.40;41.00
62809;DHT22;48848;39.002;-94.584;2023-02-15T06:43:13;18.30;41.10
62809;DHT22;48848;39.002;-94.584;2023-02-15T06:45:39;18.40;40.90
62809;DHT22;48848;39.002;-94.584;2023-02-15T06:48:06;18.30;40.90
62809;DHT22;48848;39.002;-94.584;2023-02-15T06:50:33;18.30;40.90
62809;DHT22;48848;39.002;-94.584;2023-02-15T06:52:59;18.30;41.10
62809;DHT22;48848;39.002;-94.584;2023-02-15T06:55:25;18.30;40.90
62809;DHT22;48848;39.002;-94.584;2023-02-15T06:57:51;18.20;41.10
62809;DHT22;48848;39.002;-94.584;2023-02-15T07:00:17;18.20;40.80
62809;DHT22;48848;39.002;-94.584;2023-02-15T07:02:44;18.20;40.50
62809;DHT22;48848;39.002;-94.584;2023-02-15T07:05:10;18.20;40.50
62809;DHT22;48848;39.002;-94.584;2023-02-15T07:07:35;18.20;40.60
62809;DHT22;48848;39.002;-94.584;2023-02-15T07:10:02;18.10;40.50
62809;DHT22;48848;39.002;-94.584;2023-02-15T07:12:28;18.10;40.70
62809;DHT22;48848;39.002;-94.584;2023-02-15T07:15:10;18.00;40.70
62809;DHT22;48848;39.002;-94.584;2023-02-15T07:17:36;18.00;40.90
62809;DHT22;48848;39.002;-94.584;2023-02-15T07:20:03;18.00;40.90
62809;DHT22;48848;39.002;-94.584;2023-02-15T07:22:29;18.00;40.70
62809;DHT22;48848;39.002;-94.584;2023-02-15T07:24:55;18.00;40.70
62809;DHT22;48848;39.002;-94.584;2023-02-15T07:27:21;17.90;40.50
62809;DHT22;48848;39.002;-94.584;2023-02-15T07:29:47;17.90;40.60
62809;DHT22;48848;39.002;-94.584;2023-02-15T07:32:13;17.90;40.50
62809;DHT22;48848;39.002;-94.584;2023-02-15T07:34:40;17.90;40.70
62809;DHT22;48848;39.002;-94.584;2023-02-15T07:37:05;17.80;40.50
62809;DHT22;48848;39.002;-94.584;2023-02-15T07:39:31;17.80;40.60
62809;DHT22;48848;39.002;-94.584;2023-02-15T07:41:57;17.80;40.70
62809;DHT22;48848;39.002;-94.584;2023-02-15T07:44:25;17.80;40.80
62809;DHT22;48848;39.002;-94.584;2023-02-15T07:46:50;17.80;40.70
62809;DHT22;48848;39.002;-94.584;2023-02-15T07:49:16;17.70;40.70
62809;DHT22;48848;39.002;-94.584;2023-02-15T07:51:42;17.70;40.60
62809;DHT22;48848;39.002;-94.584;2023-02-15T07:54:08;17.70;40.70
62809;DHT22;48848;39.002;-94.584;2023-02-15T07:56:34;17.70;40.70
62809;DHT22;48848;39.002;-94.584;2023-02-15T07:59:00;17.70;40.50
62809;DHT22;48848;39.002;-94.584;2023-02-15T08:01:32;17.70;40.30
62809;DHT22;48848;39.002;-94.584;2023-02-15T08:03:58;17.70;40.50
62809;DHT22;48848;39.002;-94.584;2023-02-15T08:06:26;17.60;40.20
62809;DHT22;48848;39.002;-94.584;2023-02-15T08:08:53;17.60;40.30
62809;DHT22;48848;39.002;-94.584;2023-02-15T08:11:20;17.50;40.30
62809;DHT22;48848;39.002;-94.584;2023-02-15T08:13:55;17.50;40.40
62809;DHT22;48848;39.002;-94.584;2023-02-15T08:16:24;17.50;40.40
62809;DHT22;48848;39.002;-94.584;2023-02-15T08:18:50;17.50;40.50
62809;DHT22;48848;39.002;-94.584;2023-02-15T08:21:17;17.50;40.40
62809;DHT22;48848;39.002;-94.584;2023-02-15T08:23:43;17.50;40.40
62809;DHT22;48848;39.002;-94.584;2023-02-15T08:26:09;17.50;40.50
62809;DHT22;48848;39.002;-94.584;2023-02-15T08:28:35;17.40;40.40
62809;DHT22;48848;39.002;-94.584;2023-02-15T08:31:05;17.40;40.50
62809;DHT22;48848;39.002;-94.584;2023-02-15T08:33:30;17.40;40.30
62809;DHT22;48848;39.002;-94.584;2023-02-15T08:35:56;17.40;40.60
62809;DHT22;48848;39.002;-94.584;2023-02-15T08:38:22;17.40;40.70
62809;DHT22;48848;39.002;-94.584;2023-02-15T08:40:48;17.30;40.50
62809;DHT22;48848;39.002;-94.584;2023-02-15T08:43:14;17.30;40.70
62809;DHT22;48848;39.002;-94.584;2023-02-15T08:45:40;17.30;40.60
62809;DHT22;48848;39.002;-94.584;2023-02-15T08:48:05;17.30;40.70
62809;DHT22;48848;39.002;-94.584;2023-02-15T08:50:31;17.30;40.40
62809;DHT22;48848;39.002;-94.584;2023-02-15T08:52:57;17.30;40.40
62809;DHT22;48848;39.002;-94.584;2023-02-15T08:55:23;17.20;40.40
62809;DHT22;48848;39.002;-94.584;2023-02-15T08:57:49;17.20;40.50
62809;DHT22;48848;39.002;-94.584;2023-02-15T09:00:15;17.20;40.60
62809;DHT22;48848;39.002;-94.584;2023-02-15T09:02:41;17.10;40.60
62809;DHT22;48848;39.002;-94.584;2023-02-15T09:05:07;17.20;40.80
62809;DHT22;48848;39.002;-94.584;2023-02-15T09:07:33;17.10;40.60
62809;DHT22;48848;39.002;-94.584;2023-02-15T09:09:59;17.10;40.80
62809;DHT22;48848;39.002;-94.584;2023-02-15T09:12:25;17.10;40.70
62809;DHT22;48848;39.002;-94.584;2023-02-15T09:14:51;17.10;40.50
62809;DHT22;48848;39.002;-94.584;2023-02-15T09:17:16;17.10;40.50
62809;DHT22;48848;39.002;-94.584;2023-02-15T09:19:42;17.00;40.70
62809;DHT22;48848;39.002;-94.584;2023-02-15T09:22:08;17.00;40.60
62809;DHT22;48848;39.002;-94.584;2023-02-15T09:24:34;17.00;40.60
62809;DHT22;48848;39.002;-94.584;2023-02-15T09:27:00;17.00;40.70
62809;DHT22;48848;39.002;-94.584;2023-02-15T09:29:26;17.00;40.90
62809;DHT22;48848;39.002;-94.584;2023-02-15T09:31:52;16.90;40.80
62809;DHT22;48848;39.002;-94.584;2023-02-15T09:34:19;16.90;41.00
62809;DHT22;48848;39.002;-94.584;2023-02-15T09:36:46;16.90;41.00
62809;DHT22;48848;39.002;-94.584;2023-02-15T09:39:25;16.90;41.00
62809;DHT22;48848;39.002;-94.584;2023-02-15T09:44:24;16.90;41.00
62809;DHT22;48848;39.002;-94.584;2023-02-15T09:49:44;16.90;41.00
62809;DHT22;48848;39.002;-94.584;2023-02-15T09:52:57;16.80;41.10
62809;DHT22;48848;39.002;-94.584;2023-02-15T09:57:33;16.80;41.20
62809;DHT22;48848;39.002;-94.584;2023-02-15T10:00:09;16.80;41.40
62809;DHT22;48848;39.002;-94.584;2023-02-15T10:16:01;16.70;41.10
62809;DHT22;48848;39.002;-94.584;2023-02-15T10:18:39;16.70;40.90
62809;DHT22;48848;39.002;-94.584;2023-02-15T10:23:54;16.70;41.10
62809;DHT22;48848;39.002;-94.584;2023-02-15T10:29:07;16.70;41.00
62809;DHT22;48848;39.002;-94.584;2023-02-15T10:44:43;16.50;41.30
62809;DHT22;48848;39.002;-94.584;2023-02-15T10:49:43;16.60;41.30
62809;DHT22;48848;39.002;-94.584;2023-02-15T10:52:25;17.20;42.60
62809;DHT22;48848;39.002;-94.584;2023-02-15T11:00:32;19.30;36.20
62809;DHT22;48848;39.002;-94.584;2023-02-15T11:06:00;17.80;38.70
62809;DHT22;48848;39.002;-94.584;2023-02-15T11:08:29;17.50;39.50
62809;DHT22;48848;39.002;-94.584;2023-02-15T11:10:58;17.30;39.90
62809;DHT22;48848;39.002;-94.584;2023-02-15T11:13:27;17.20;40.30
62809;DHT22;48848;39.002;-94.584;2023-02-15T11:15:55;17.10;40.50
62809;DHT22;48848;39.002;-94.584;2023-02-15T11:18:28;17.00;40.70
62809;DHT22;48848;39.002;-94.584;2023-02-15T11:23:23;16.90;40.90
62809;DHT22;48848;39.002;-94.584;2023-02-15T11:28:49;16.80;41.00
62809;DHT22;48848;39.002;-94.584;2023-02-15T11:31:21;16.80;41.10
62809;DHT22;48848;39.002;-94.584;2023-02-15T11:33:49;16.80;41.10
62809;DHT22;48848;39.002;-94.584;2023-02-15T11:36:19;16.80;41.20
62809;DHT22;48848;39.002;-94.584;2023-02-15T11:38:45;16.70;41.00
62809;DHT22;48848;39.002;-94.584;2023-02-15T11:41:20;16.70;41.00
62809;DHT22;48848;39.002;-94.584;2023-02-15T11:43:54;16.80;41.10
62809;DHT22;48848;39.002;-94.584;2023-02-15T11:46:22;17.50;41.80
62809;DHT22;48848;39.002;-94.584;2023-02-15T11:48:48;18.70;39.50
62809;DHT22;48848;39.002;-94.584;2023-02-15T11:51:15;19.70;37.80
62809;DHT22;48848;39.002;-94.584;2023-02-15T11:53:42;20.50;36.30
62809;DHT22;48848;39.002;-94.584;2023-02-15T11:56:24;21.20;35.30
62809;DHT22;48848;39.002;-94.584;2023-02-15T11:58:52;21.80;34.20
62809;DHT22;48848;39.002;-94.584;2023-02-15T12:01:33;22.40;33.20
62809;DHT22;48848;39.002;-94.584;2023-02-15T12:04:09;22.90;32.60
62809;DHT22;48848;39.002;-94.584;2023-02-15T12:06:46;23.20;31.90
62809;DHT22;48848;39.002;-94.584;2023-02-15T12:15:00;21.40;32.00
62809;DHT22;48848;39.002;-94.584;2023-02-15T12:17:27;19.90;35.00
62809;DHT22;48848;39.002;-94.584;2023-02-15T12:19:57;19.40;36.60
62809;DHT22;48848;39.002;-94.584;2023-02-15T12:22:26;19.00;37.30
62809;DHT22;48848;39.002;-94.584;2023-02-15T12:24:54;18.80;37.90
62809;DHT22;48848;39.002;-94.584;2023-02-15T12:29:55;20.90;36.40
62809;DHT22;48848;39.002;-94.584;2023-02-15T12:32:23;21.80;34.70
62809;DHT22;48848;39.002;-94.584;2023-02-15T12:34:50;22.70;33.30
62809;DHT22;48848;39.002;-94.584;2023-02-15T12:37:19;23.00;32.10
62809;DHT22;48848;39.002;-94.584;2023-02-15T12:39:52;21.10;32.80
62809;DHT22;48848;39.002;-94.584;2023-02-15T12:42:19;20.10;35.40
62809;DHT22;48848;39.002;-94.584;2023-02-15T12:45:31;19.60;36.60
62809;DHT22;48848;39.002;-94.584;2023-02-15T12:47:31;19.30;37.10
62809;DHT22;48848;39.002;-94.584;2023-02-15T12:50:14;19.10;37.80
62809;DHT22;48848;39.002;-94.584;2023-02-15T12:52:48;19.00;38.20
62809;DHT22;48848;39.002;-94.584;2023-02-15T12:55:24;18.80;38.20
62809;DHT22;48848;39.002;-94.584;2023-02-15T13:00:35;18.70;38.90
62809;DHT22;48848;39.002;-94.584;2023-02-15T13:03:02;18.60;39.00
62809;DHT22;48848;39.002;-94.584;2023-02-15T13:08:01;20.30;37.50
62809;DHT22;48848;39.002;-94.584;2023-02-15T13:10:29;21.50;35.80
62809;DHT22;48848;39.002;-94.584;2023-02-15T13:12:56;22.40;34.40
62809;DHT22;48848;39.002;-94.584;2023-02-15T13:15:27;21.80;33.20
62809;DHT22;48848;39.002;-94.584;2023-02-15T13:17:57;20.50;35.10
62809;DHT22;48848;39.002;-94.584;2023-02-15T13:20:24;19.90;36.70
62809;DHT22;48848;39.002;-94.584;2023-02-15T13:22:54;19.50;38.00
62809;DHT22;48848;39.002;-94.584;2023-02-15T13:25:22;18.70;39.70
62809;DHT22;48848;39.002;-94.584;2023-02-15T13:27:50;18.20;41.20
62809;DHT22;48848;39.002;-94.584;2023-02-15T13:32:44;17.80;44.30
62809;DHT22;48848;39.002;-94.584;2023-02-15T13:35:14;17.60;43.60
62809;DHT22;48848;39.002;-94.584;2023-02-15T13:38:02;17.50;43.80
62809;DHT22;48848;39.002;-94.584;2023-02-15T13:40:43;17.50;43.80
62809;DHT22;48848;39.002;-94.584;2023-02-15T13:45:56;17.30;44.20
62809;DHT22;48848;39.002;-94.584;2023-02-15T13:48:45;17.10;44.50
62809;DHT22;48848;39.002;-94.584;2023-02-15T13:51:15;17.00;44.70
62809;DHT22;48848;39.002;-94.584;2023-02-15T13:53:54;17.10;44.70
62809;DHT22;48848;39.002;-94.584;2023-02-15T13:59:06;19.00;41.90
62809;DHT22;48848;39.002;-94.584;2023-02-15T14:01:55;20.40;39.60
62809;DHT22;48848;39.002;-94.584;2023-02-15T14:17:36;17.40;43.30
62809;DHT22;48848;39.002;-94.584;2023-02-15T14:20:36;17.30;43.40
62809;DHT22;48848;39.002;-94.584;2023-02-15T14:28:05;17.20;43.70
62809;DHT22;48848;39.002;-94.584;2023-02-15T14:30:37;17.00;43.60
62809;DHT22;48848;39.002;-94.584;2023-02-15T14:33:07;17.20;44.50
62809;DHT22;48848;39.002;-94.584;2023-02-15T14:35:34;17.90;42.70
62809;DHT22;48848;39.002;-94.584;2023-02-15T14:46:07;18.90;38.40
62809;DHT22;48848;39.002;-94.584;2023-02-15T14:51:02;17.70;41.40
62809;DHT22;48848;39.002;-94.584;2023-02-15T14:56:13;17.40;42.30
62809;DHT22;48848;39.002;-94.584;2023-02-15T15:03:53;17.20;42.60
62809;DHT22;48848;39.002;-94.584;2023-02-15T15:06:38;17.40;43.70
62809;DHT22;48848;39.002;-94.584;2023-02-15T15:09:12;17.20;42.80
62809;DHT22;48848;39.002;-94.584;2023-02-15T15:11:41;17.10;43.20
62809;DHT22;48848;39.002;-94.584;2023-02-15T15:14:07;17.00;43.20
62809;DHT22;48848;39.002;-94.584;2023-02-15T15:19:04;17.00;43.20
62809;DHT22;48848;39.002;-94.584;2023-02-15T15:29:42;16.70;43.40
62809;DHT22;48848;39.002;-94.584;2023-02-15T15:32:08;16.70;43.70
62809;DHT22;48848;39.002;-94.584;2023-02-15T15:37:16;16.50;43.50
62809;DHT22;48848;39.002;-94.584;2023-02-15T15:45:25;16.50;43.40
62809;DHT22;48848;39.002;-94.584;2023-02-15T15:50:40;16.40;43.40
62809;DHT22;48848;39.002;-94.584;2023-02-15T15:53:06;16.30;43.30
62809;DHT22;48848;39.002;-94.584;2023-02-15T15:55:41;16.30;43.10
62809;DHT22;48848;39.002;-94.584;2023-02-15T15:58:08;16.30;43.30
62809;DHT22;48848;39.002;-94.584;2023-02-15T16:01:16;16.30;43.10
62809;DHT22;48848;39.002;-94.584;2023-02-15T16:03:26;16.30;43.10
62809;DHT22;48848;39.002;-94.584;2023-02-15T16:05:53;16.20;43.40
62809;DHT22;48848;39.002;-94.584;2023-02-15T16:08:31;16.20;43.20
62809;DHT22;48848;39.002;-94.584;2023-02-15T16:10:57;16.20;43.00
62809;DHT22;48848;39.002;-94.584;2023-02-15T16:13:23;16.20;42.90
62809;DHT22;48848;39.002;-94.584;2023-02-15T16:15:51;16.10;42.60
62809;DHT22;48848;39.002;-94.584;2023-02-15T16:18:18;16.10;43.10
62809;DHT22;48848;39.002;-94.584;2023-02-15T16:23:29;16.20;44.60
62809;DHT22;48848;39.002;-94.584;2023-02-15T16:26:46;16.20;44.20
62809;DHT22;48848;39.002;-94.584;2023-02-15T16:28:50;16.40;43.20
62809;DHT22;48848;39.002;-94.584;2023-02-15T16:31:17;16.20;43.10
62809;DHT22;48848;39.002;-94.584;2023-02-15T16:33:43;16.20;43.20
62809;DHT22;48848;39.002;-94.584;2023-02-15T16:36:10;16.10;43.00
62809;DHT22;48848;39.002;-94.584;2023-02-15T16:41:09;15.90;42.70
62809;DHT22;48848;39.002;-94.584;2023-02-15T16:43:36;15.90;42.70
62809;DHT22;48848;39.002;-94.584;2023-02-15T16:46:03;15.90;42.80
62809;DHT22;48848;39.002;-94.584;2023-02-15T16:48:30;16.10;43.80
62809;DHT22;48848;39.002;-94.584;2023-02-15T16:50:57;16.00;43.20
62809;DHT22;48848;39.002;-94.584;2023-02-15T16:53:25;15.90;43.20
62809;DHT22;48848;39.002;-94.584;2023-02-15T16:55:53;16.20;43.00
62809;DHT22;48848;39.002;-94.584;2023-02-15T16:58:23;16.10;42.60
62809;DHT22;48848;39.002;-94.584;2023-02-15T17:00:50;16.10;42.50
62809;DHT22;48848;39.002;-94.584;2023-02-15T17:03:21;16.10;43.60
62809;DHT22;48848;39.002;-94.584;2023-02-15T17:05:49;15.90;42.60
62809;DHT22;48848;39.002;-94.584;2023-02-15T17:13:29;15.90;42.60
62809;DHT22;48848;39.002;-94.584;2023-02-15T17:18:25;15.70;42.80
62809;DHT22;48848;39.002;-94.584;2023-02-15T17:20:53;15.70;43.00
62809;DHT22;48848;39.002;-94.584;2023-02-15T17:25:52;15.70;42.80
62809;DHT22;48848;39.002;-94.584;2023-02-15T17:28:22;15.70;42.80
62809;DHT22;48848;39.002;-94.584;2023-02-15T17:30:49;15.60;42.80
62809;DHT22;48848;39.002;-94.584;2023-02-15T17:33:20;15.60;42.80
62809;DHT22;48848;39.002;-94.584;2023-02-15T17:38:32;15.60;42.90
62809;DHT22;48848;39.002;-94.584;2023-02-15T17:40:58;15.70;42.80
62809;DHT22;48848;39.002;-94.584;2023-02-15T17:43:24;16.40;42.30
62809;DHT22;48848;39.002;-94.584;2023-02-15T17:45:50;17.50;40.80
62809;DHT22;48848;39.002;-94.584;2023-02-15T17:48:30;18.70;38.60
62809;DHT22;48848;39.002;-94.584;2023-02-15T17:50:57;18.60;36.90
62809;DHT22;48848;39.002;-94.584;2023-02-15T17:53:23;17.50;38.50
62809;DHT22;48848;39.002;-94.584;2023-02-15T17:55:50;17.10;39.60
62809;DHT22;48848;39.002;-94.584;2023-02-15T17:58:17;16.80;40.30
62809;DHT22;48848;39.002;-94.584;2023-02-15T18:00:54;16.80;40.80
62809;DHT22;48848;39.002;-94.584;2023-02-15T18:03:40;16.70;40.90
62809;DHT22;48848;39.002;-94.584;2023-02-15T18:06:24;16.60;41.10
62809;DHT22;48848;39.002;-94.584;2023-02-15T18:09:12;16.50;41.30